createdAt,value
2023-02-09T00:00:13.218Z,65.98
2023-02-09T00:02:40.652Z,66.21
2023-02-09T00:05:08.242Z,66.82
2023-02-09T00:07:35.040Z,66.73
2023-02-09T00:10:01.948Z,66.40
2023-02-09T00:12:47.431Z,65.29
2023-02-09T00:15:14.110Z,65.93
2023-02-09T00:17:40.907Z,65.79
2023-02-09T00:20:08.523Z,65.79
2023-02-09T00:22:35.245Z,66.96
2023-02-09T00:25:02.057Z,68.12
2023-02-09T00:27:29.993Z,67.81
2023-02-09T00:29:56.789Z,67.65
2023-02-09T00:32:23.488Z,68.14
2023-02-09T00:34:50.310Z,68.33
2023-02-09T00:37:17.073Z,68.34
2023-02-09T00:39:45.743Z,69.03
2023-02-09T00:42:12.524Z,68.52
2023-02-09T00:44:40.475Z,68.39
2023-02-09T00:47:08.460Z,67.39
2023-02-09T00:49:35.204Z,67.34
2023-02-09T00:52:02.453Z,67.33
2023-02-09T00:54:29.338Z,67.06
2023-02-09T00:56:56.153Z,66.51
2023-02-09T00:59:22.962Z,66.60
2023-02-09T01:01:49.716Z,65.97
2023-02-09T01:04:16.551Z,65.81
2023-02-09T01:06:43.304Z,66.38
2023-02-09T01:09:10.454Z,65.50
2023-02-09T01:11:38.704Z,64.22
2023-02-09T01:14:05.502Z,64.25
2023-02-09T01:16:32.687Z,64.62
2023-02-09T01:19:01.324Z,64.09
2023-02-09T01:21:29.435Z,63.57
2023-02-09T01:23:56.484Z,63.64
2023-02-09T01:26:23.256Z,64.13
2023-02-09T01:28:53.649Z,63.24
2023-02-09T01:31:29.745Z,63.27
2023-02-09T01:33:58.432Z,63.15
2023-02-09T01:36:27.462Z,63.71
2023-02-09T01:38:55.639Z,63.28
2023-02-09T01:41:23.020Z,63.95
2023-02-09T01:44:08.184Z,63.00
2023-02-09T01:46:36.686Z,63.32
2023-02-09T01:49:08.180Z,64.04
2023-02-09T01:51:44.350Z,63.00
2023-02-09T01:54:15.312Z,62.92
2023-02-09T01:56:46.217Z,62.72
2023-02-09T01:59:13.887Z,63.38
2023-02-09T02:01:41.427Z,63.03
2023-02-09T02:04:08.451Z,63.21
2023-02-09T02:06:36.617Z,62.68
2023-02-09T02:09:09.172Z,62.64
2023-02-09T02:11:36.004Z,63.09
2023-02-09T02:14:03.430Z,62.83
2023-02-09T02:16:42.344Z,64.07
2023-02-09T02:19:28.758Z,62.34
2023-02-09T02:22:14.661Z,63.63
2023-02-09T02:25:18.955Z,62.53
2023-02-09T02:27:49.194Z,63.03
2023-02-09T02:30:37.526Z,63.21
2023-02-09T02:33:34.473Z,63.68
2023-02-09T02:36:19.796Z,64.77
2023-02-09T02:39:14.533Z,64.33
2023-02-09T02:42:20.481Z,65.42
2023-02-09T02:44:58.711Z,65.46
2023-02-09T02:47:27.911Z,66.03
2023-02-09T02:50:01.597Z,65.97
2023-02-09T02:52:28.471Z,66.35
2023-02-09T02:55:04.114Z,66.78
2023-02-09T02:57:32.754Z,65.62
2023-02-09T03:00:06.218Z,65.58
2023-02-09T03:02:54.442Z,65.22
2023-02-09T03:05:23.079Z,65.92
2023-02-09T03:07:50.189Z,66.13
2023-02-09T03:10:43.649Z,66.00
2023-02-09T03:13:28.938Z,66.02
2023-02-09T03:15:55.658Z,66.49
2023-02-09T03:18:36.812Z,67.33
2023-02-09T03:21:08.159Z,67.44
2023-02-09T03:23:59.375Z,67.51
2023-02-09T03:26:29.791Z,67.03
2023-02-09T03:28:57.875Z,66.62
2023-02-09T03:31:25.064Z,66.56
2023-02-09T03:33:52.359Z,66.63
2023-02-09T03:36:20.646Z,66.87
2023-02-09T03:38:47.524Z,67.07
2023-02-09T03:41:14.476Z,67.59
2023-02-09T03:43:59.830Z,68.92
2023-02-09T03:46:26.748Z,69.07
2023-02-09T03:48:53.539Z,68.95
2023-02-09T03:51:20.315Z,69.18
2023-02-09T03:53:47.290Z,68.23
2023-02-09T03:56:14.049Z,68.90
2023-02-09T03:58:40.864Z,67.94
2023-02-09T04:01:09.642Z,68.53
2023-02-09T04:03:37.623Z,68.34
2023-02-09T04:06:04.773Z,68.44
2023-02-09T04:08:33.298Z,68.29
2023-02-09T04:11:00.171Z,67.91
2023-02-09T04:13:27.145Z,66.99
2023-02-09T04:15:54.081Z,66.59
2023-02-09T04:18:21.012Z,67.99
2023-02-09T04:20:48.171Z,68.67
2023-02-09T04:23:16.553Z,68.83
2023-02-09T04:25:43.500Z,68.43
2023-02-09T04:28:10.316Z,68.02
2023-02-09T04:30:37.119Z,67.70
2023-02-09T04:33:03.948Z,68.21
2023-02-09T04:35:30.735Z,68.44
2023-02-09T04:37:57.426Z,68.30
2023-02-09T04:40:24.159Z,68.76
2023-02-09T04:42:50.871Z,68.55
2023-02-09T04:45:17.748Z,69.62
2023-02-09T04:47:44.448Z,69.67
2023-02-09T04:50:11.475Z,69.43
2023-02-09T04:52:38.197Z,69.37
2023-02-09T04:55:05.439Z,68.64
2023-02-09T04:57:50.934Z,68.12
2023-02-09T05:00:17.886Z,68.87
2023-02-09T05:02:44.656Z,68.78
2023-02-09T05:05:11.442Z,68.76
2023-02-09T05:07:38.130Z,68.43
2023-02-09T05:10:07.640Z,67.87
2023-02-09T05:12:34.376Z,68.07
2023-02-09T05:15:01.168Z,68.89
2023-02-09T05:17:27.965Z,69.94
2023-02-09T05:19:54.667Z,69.91
2023-02-09T05:22:21.474Z,70.77
2023-02-09T05:24:48.146Z,70.08
2023-02-09T05:27:14.908Z,69.61
2023-02-09T05:29:42.031Z,69.98
2023-02-09T05:32:08.793Z,70.19
2023-02-09T05:34:35.556Z,70.04
2023-02-09T05:37:02.473Z,69.65
2023-02-09T05:39:29.208Z,70.63
2023-02-09T05:42:14.588Z,70.10
2023-02-09T05:44:46.441Z,70.95
2023-02-09T05:47:15.449Z,70.28
2023-02-09T05:49:42.293Z,70.92
2023-02-09T05:52:09.578Z,70.94
2023-02-09T05:54:36.499Z,69.69
2023-02-09T05:57:04.096Z,69.86
2023-02-09T05:59:30.994Z,71.29
2023-02-09T06:01:58.164Z,70.56
2023-02-09T06:04:25.841Z,70.92
2023-02-09T06:06:52.948Z,71.08
2023-02-09T06:09:19.919Z,71.07
2023-02-09T06:11:47.232Z,70.19
2023-02-09T06:14:14.132Z,70.06
2023-02-09T06:16:41.205Z,69.35
2023-02-09T06:19:11.167Z,69.41
2023-02-09T06:21:37.930Z,68.45
2023-02-09T06:24:04.924Z,69.67
2023-02-09T06:26:31.622Z,69.62
2023-02-09T06:28:58.371Z,69.21
2023-02-09T06:31:25.237Z,70.13
2023-02-09T06:33:52.317Z,69.81
2023-02-09T06:36:19.163Z,68.93
2023-02-09T06:38:46.140Z,69.01
2023-02-09T06:41:13.009Z,68.06
2023-02-09T06:43:39.674Z,68.02
2023-02-09T06:46:08.381Z,67.47
2023-02-09T06:48:35.525Z,66.49
2023-02-09T06:51:02.417Z,66.12
2023-02-09T06:53:29.335Z,65.33
2023-02-09T06:56:01.499Z,65.87
2023-02-09T06:58:28.687Z,64.53
2023-02-09T07:00:55.426Z,64.32
2023-02-09T07:03:22.191Z,62.29
2023-02-09T07:05:49.019Z,62.18
2023-02-09T07:08:15.749Z,61.83
2023-02-09T07:10:43.625Z,60.66
2023-02-09T07:13:10.536Z,59.19
2023-02-09T07:15:41.768Z,58.79
2023-02-09T07:18:08.731Z,57.65
2023-02-09T07:20:35.877Z,56.67
2023-02-09T07:23:02.837Z,55.95
2023-02-09T07:25:29.634Z,56.19
2023-02-09T07:27:56.426Z,55.35
2023-02-09T07:30:23.234Z,54.56
2023-02-09T07:32:49.994Z,53.60
2023-02-09T07:35:16.912Z,53.57
2023-02-09T07:37:43.894Z,52.29
2023-02-09T07:40:11.114Z,52.17
2023-02-09T07:42:37.929Z,51.19
2023-02-09T07:45:05.724Z,49.86
2023-02-09T07:47:32.611Z,50.08
2023-02-09T07:49:59.371Z,49.77
2023-02-09T07:52:26.277Z,49.25
2023-02-09T07:54:53.079Z,48.57
2023-02-09T07:57:19.938Z,47.81
2023-02-09T07:59:46.793Z,48.04
2023-02-09T08:02:19.363Z,46.98
2023-02-09T08:04:46.450Z,47.07
2023-02-09T08:07:13.377Z,46.84
2023-02-09T08:09:42.821Z,46.16
2023-02-09T08:12:09.961Z,45.29
2023-02-09T08:14:48.414Z,45.27
2023-02-09T08:17:20.807Z,45.85
2023-02-09T08:20:10.141Z,45.20
2023-02-09T08:22:39.175Z,44.42
2023-02-09T08:25:06.438Z,44.04
2023-02-09T08:27:34.501Z,43.39
2023-02-09T08:30:01.558Z,43.30
2023-02-09T08:32:28.474Z,42.26
2023-02-09T08:34:55.373Z,41.63
2023-02-09T08:37:22.238Z,40.71
2023-02-09T08:39:49.019Z,39.57
2023-02-09T08:42:15.783Z,39.52
2023-02-09T08:44:42.621Z,38.61
2023-02-09T08:47:09.636Z,37.89
2023-02-09T08:49:36.607Z,37.56
2023-02-09T08:52:03.495Z,37.20
2023-02-09T08:54:30.460Z,36.66
2023-02-09T08:56:57.525Z,36.93
2023-02-09T08:59:24.375Z,36.72
2023-02-09T09:01:51.286Z,36.15
2023-02-09T09:04:18.190Z,35.06
2023-02-09T09:06:44.926Z,34.80
2023-02-09T09:09:11.812Z,34.05
2023-02-09T09:11:39.095Z,34.15
2023-02-09T09:14:06.136Z,33.62
2023-02-09T09:16:33.623Z,34.12
2023-02-09T09:19:00.523Z,33.83
2023-02-09T09:21:27.489Z,32.18
2023-02-09T09:23:54.613Z,31.54
2023-02-09T09:26:21.765Z,31.08
2023-02-09T09:28:52.074Z,31.39
2023-02-09T09:31:19.599Z,31.49
2023-02-09T09:33:46.937Z,30.83
2023-02-09T09:36:14.827Z,31.21
2023-02-09T09:38:42.755Z,30.64
2023-02-09T09:41:21.178Z,29.50
2023-02-09T09:43:48.320Z,29.34
2023-02-09T09:46:21.901Z,29.98
2023-02-09T09:48:56.346Z,28.79
2023-02-09T09:51:39.939Z,29.83
2023-02-09T09:54:13.517Z,28.21
2023-02-09T09:56:41.668Z,28.98
2023-02-09T09:59:18.433Z,27.86
2023-02-09T10:01:45.671Z,27.48
2023-02-09T10:04:14.612Z,28.08
2023-02-09T10:06:46.693Z,26.72
2023-02-09T10:09:31.631Z,26.38
2023-02-09T10:12:15.025Z,25.58
2023-02-09T10:14:41.810Z,26.46
2023-02-09T10:17:08.665Z,26.42
2023-02-09T10:19:35.514Z,27.01
2023-02-09T10:22:02.212Z,25.50
2023-02-09T10:24:32.066Z,25.90
2023-02-09T10:27:03.226Z,24.94
2023-02-09T10:29:30.185Z,24.27
2023-02-09T10:32:14.852Z,24.67
2023-02-09T10:34:44.638Z,24.06
2023-02-09T10:37:26.558Z,22.84
2023-02-09T10:40:06.041Z,22.91
2023-02-09T10:42:34.741Z,23.53
2023-02-09T10:45:09.157Z,23.33
2023-02-09T10:47:35.854Z,23.34
2023-02-09T10:50:11.552Z,22.97
2023-02-09T10:53:14.307Z,23.39
2023-02-09T10:55:42.755Z,22.91
2023-02-09T10:58:09.462Z,23.16
2023-02-09T11:00:42.252Z,22.00
2023-02-09T11:03:17.530Z,20.98
2023-02-09T11:05:46.874Z,21.56
2023-02-09T11:08:20.866Z,20.49
2023-02-09T11:11:02.735Z,19.89
2023-02-09T11:13:32.092Z,20.30
2023-02-09T11:16:21.155Z,19.30
2023-02-09T11:18:59.397Z,19.42
2023-02-09T11:21:50.817Z,18.78
2023-02-09T11:24:26.475Z,18.99
2023-02-09T11:27:03.680Z,25.50
2023-02-09T11:29:36.420Z,18.56
2023-02-09T11:32:05.323Z,17.45
2023-02-09T11:34:55.152Z,17.87
2023-02-09T11:37:40.084Z,18.36
2023-02-09T11:40:23.727Z,18.65
2023-02-09T11:42:56.492Z,19.44
2023-02-09T11:45:32.800Z,19.97
2023-02-09T11:48:17.883Z,20.93
2023-02-09T11:51:02.131Z,20.76
2023-02-09T11:53:31.886Z,20.62
2023-02-09T11:56:00.436Z,20.91
2023-02-09T11:58:46.377Z,20.79
2023-02-09T12:01:25.596Z,21.38
2023-02-09T12:04:01.645Z,21.29
2023-02-09T12:06:31.992Z,21.31
2023-02-09T12:09:09.087Z,21.44
2023-02-09T12:11:57.172Z,22.05
2023-02-09T12:14:56.479Z,22.72
2023-02-09T12:17:46.884Z,22.10
2023-02-09T12:20:29.432Z,22.51
2023-02-09T12:23:01.296Z,22.43
2023-02-09T12:25:51.402Z,23.47
2023-02-09T12:28:24.726Z,22.65
2023-02-09T12:30:51.479Z,22.70
2023-02-09T12:33:22.168Z,23.01
2023-02-09T12:36:10.542Z,22.60
2023-02-09T12:38:51.534Z,22.78
2023-02-09T12:41:25.685Z,23.35
2023-02-09T12:44:09.168Z,23.77
2023-02-09T12:46:44.957Z,23.71
2023-02-09T12:49:11.846Z,24.52
2023-02-09T12:51:47.602Z,24.25
2023-02-09T12:54:30.896Z,24.49
2023-02-09T12:57:16.402Z,24.22
2023-02-09T13:00:03.553Z,23.56
2023-02-09T13:02:55.161Z,23.57
2023-02-09T13:05:21.857Z,23.17
2023-02-09T13:08:15.827Z,24.32
2023-02-09T13:11:15.078Z,24.04
2023-02-09T13:13:49.632Z,24.64
2023-02-09T13:16:54.970Z,24.41
2023-02-09T13:19:45.859Z,25.10
2023-02-09T13:22:53.583Z,24.35
2023-02-09T13:25:32.965Z,24.32
2023-02-09T13:28:14.963Z,24.71
2023-02-09T13:30:41.862Z,24.83
2023-02-09T13:33:47.570Z,24.89
2023-02-09T13:36:25.086Z,24.31
2023-02-09T13:38:52.808Z,24.66
2023-02-09T13:41:40.882Z,25.06
2023-02-09T13:44:28.945Z,24.72
2023-02-09T13:46:57.987Z,25.00
2023-02-09T13:49:25.821Z,24.51
2023-02-09T13:52:15.953Z,24.70
2023-02-09T13:54:43.322Z,25.02
2023-02-09T13:57:12.635Z,25.34
2023-02-09T13:59:42.800Z,25.31
2023-02-09T14:02:18.865Z,25.08
2023-02-09T14:04:49.727Z,25.22
2023-02-09T14:07:17.252Z,26.01
2023-02-09T14:10:10.402Z,24.65
2023-02-09T14:13:00.788Z,25.60
2023-02-09T14:15:58.392Z,25.99
2023-02-09T14:18:32.782Z,26.33
2023-02-09T14:21:04.806Z,26.85
2023-02-09T14:23:35.059Z,27.00
2023-02-09T14:26:14.193Z,27.22
2023-02-09T14:28:49.656Z,27.79
2023-02-09T14:31:20.867Z,28.22
2023-02-09T14:33:49.440Z,28.74
2023-02-09T14:36:29.611Z,29.86
2023-02-09T14:39:17.139Z,30.23
2023-02-09T14:42:10.717Z,30.60
2023-02-09T14:45:15.909Z,31.74
2023-02-09T14:47:44.434Z,32.85
2023-02-09T14:50:12.711Z,33.72
2023-02-09T14:52:40.234Z,33.78
2023-02-09T14:55:14.413Z,33.97
2023-02-09T14:57:41.153Z,33.71
2023-02-09T15:00:23.408Z,34.75
2023-02-09T15:02:52.224Z,35.24
2023-02-09T15:05:20.708Z,36.07
2023-02-09T15:07:50.848Z,37.27
2023-02-09T15:10:30.120Z,38.14
2023-02-09T15:12:57.611Z,38.85
2023-02-09T15:15:25.502Z,40.38
2023-02-09T15:17:54.305Z,40.85
2023-02-09T15:20:25.188Z,41.95
2023-02-09T15:22:53.473Z,42.21
2023-02-09T15:25:20.793Z,42.52
2023-02-09T15:27:53.809Z,42.66
2023-02-09T15:30:26.785Z,43.80
2023-02-09T15:32:53.913Z,44.25
2023-02-09T15:35:23.370Z,44.56
2023-02-09T15:37:53.714Z,44.05
2023-02-09T15:41:01.701Z,44.82
2023-02-09T15:43:47.737Z,45.13
2023-02-09T15:46:37.614Z,45.46
2023-02-09T15:49:05.642Z,46.50
2023-02-09T15:51:34.970Z,46.73
2023-02-09T15:54:02.424Z,47.16
2023-02-09T15:56:29.434Z,47.76
2023-02-09T15:59:03.444Z,47.97
2023-02-09T16:01:37.119Z,47.29
2023-02-09T16:04:13.804Z,47.83
2023-02-09T16:06:49.987Z,48.27
2023-02-09T16:09:19.692Z,48.83
2023-02-09T16:11:48.524Z,48.07
2023-02-09T16:14:20.758Z,48.00
2023-02-09T16:16:48.359Z,48.59
2023-02-09T16:19:15.339Z,48.59
2023-02-09T16:21:44.032Z,49.12
2023-02-09T16:24:30.150Z,49.10
2023-02-09T16:27:01.951Z,49.09
2023-02-09T16:29:29.074Z,49.14
2023-02-09T16:31:55.916Z,50.77
2023-02-09T16:34:22.778Z,51.57
2023-02-09T16:36:49.822Z,52.43
2023-02-09T16:39:19.403Z,51.39
2023-02-09T16:41:47.076Z,51.44
2023-02-09T16:44:20.492Z,51.67
2023-02-09T16:46:49.554Z,53.43
2023-02-09T16:49:29.792Z,53.64
2023-02-09T16:51:58.039Z,52.62
2023-02-09T16:54:24.855Z,52.80
2023-02-09T16:56:54.513Z,53.04
2023-02-09T16:59:22.004Z,52.92
2023-02-09T17:01:49.156Z,53.25
2023-02-09T17:04:16.021Z,53.58
2023-02-09T17:06:43.057Z,53.57
2023-02-09T17:09:14.593Z,53.00
2023-02-09T17:11:41.515Z,54.72
2023-02-09T17:14:08.370Z,54.90
2023-02-09T17:16:37.766Z,55.65
2023-02-09T17:19:05.160Z,55.65
2023-02-09T17:21:35.370Z,56.03
2023-02-09T17:24:02.681Z,55.48
2023-02-09T17:26:29.432Z,55.15
2023-02-09T17:28:56.303Z,55.88
2023-02-09T17:31:43.721Z,56.10
2023-02-09T17:34:17.788Z,57.19
2023-02-09T17:36:45.078Z,57.29
2023-02-09T17:39:11.985Z,57.04
2023-02-09T17:41:44.710Z,57.29
2023-02-09T17:44:24.069Z,57.20
2023-02-09T17:46:56.124Z,57.66
2023-02-09T17:49:22.938Z,57.83
2023-02-09T17:51:49.776Z,58.48
2023-02-09T17:54:19.435Z,58.34
2023-02-09T17:56:46.751Z,59.77
2023-02-09T17:59:14.855Z,59.69
2023-02-09T18:01:45.816Z,59.29
2023-02-09T18:04:18.802Z,59.38
2023-02-09T18:06:45.681Z,59.04
2023-02-09T18:09:13.453Z,59.68
2023-02-09T18:11:52.377Z,60.13
2023-02-09T18:14:20.746Z,60.85
2023-02-09T18:16:48.305Z,60.54
2023-02-09T18:19:16.118Z,59.86
2023-02-09T18:21:54.346Z,58.71
2023-02-09T18:24:22.927Z,58.42
2023-02-09T18:26:52.352Z,57.74
2023-02-09T18:29:20.366Z,57.09
2023-02-09T18:31:47.118Z,57.66
2023-02-09T18:34:15.254Z,57.77
2023-02-09T18:36:42.460Z,56.92
2023-02-09T18:39:09.406Z,57.24
2023-02-09T18:41:36.095Z,56.88
2023-02-09T18:44:02.900Z,57.41
2023-02-09T18:46:29.811Z,57.08
2023-02-09T18:48:56.630Z,56.65
2023-02-09T18:51:23.766Z,57.84
2023-02-09T18:53:51.245Z,57.40
2023-02-09T18:56:22.351Z,56.88
2023-02-09T18:58:52.689Z,56.60
2023-02-09T19:01:21.052Z,56.45
2023-02-09T19:03:52.144Z,56.71
2023-02-09T19:06:20.560Z,56.63
2023-02-09T19:08:50.447Z,55.55
2023-02-09T19:11:19.495Z,55.20
2023-02-09T19:14:05.132Z,55.05
2023-02-09T19:16:31.896Z,55.57
2023-02-09T19:18:59.466Z,56.74
2023-02-09T19:21:27.203Z,57.31
2023-02-09T19:23:56.763Z,58.29
2023-02-09T19:26:23.408Z,58.64
2023-02-09T19:28:50.168Z,58.73
2023-02-09T19:31:17.780Z,60.09
2023-02-09T19:33:44.637Z,59.07
2023-02-09T19:36:11.508Z,58.90
2023-02-09T19:38:38.258Z,59.00
2023-02-09T19:41:12.407Z,58.78
2023-02-09T19:43:42.190Z,58.92
2023-02-09T19:46:10.389Z,59.39
2023-02-09T19:48:40.586Z,59.24
2023-02-09T19:51:08.048Z,59.04
2023-02-09T19:53:35.255Z,60.26
2023-02-09T19:56:02.249Z,61.08
2023-02-09T19:58:29.111Z,60.92
2023-02-09T20:00:56.198Z,60.69
2023-02-09T20:03:24.085Z,60.78
2023-02-09T20:05:51.324Z,60.10
2023-02-09T20:08:19.120Z,60.31
2023-02-09T20:10:46.352Z,60.87
2023-02-09T20:13:13.660Z,60.58
2023-02-09T20:15:43.896Z,59.79
2023-02-09T20:18:13.531Z,60.60
2023-02-09T20:20:43.274Z,60.01
2023-02-09T20:23:10.531Z,60.77
2023-02-09T20:25:40.773Z,60.39
2023-02-09T20:28:08.023Z,61.80
2023-02-09T20:30:35.241Z,61.89
2023-02-09T20:33:02.069Z,62.13
2023-02-09T20:35:28.933Z,62.53
2023-02-09T20:37:55.715Z,62.47
2023-02-09T20:40:22.783Z,62.70
2023-02-09T20:43:08.446Z,61.39
2023-02-09T20:45:53.818Z,61.37
2023-02-09T20:48:20.602Z,61.91
2023-02-09T20:50:47.960Z,62.53
2023-02-09T20:53:15.007Z,63.11
2023-02-09T20:55:42.916Z,61.98
2023-02-09T20:58:11.897Z,62.38
2023-02-09T21:00:39.552Z,62.36
2023-02-09T21:03:07.458Z,61.99
2023-02-09T21:05:35.153Z,62.10
2023-02-09T21:08:04.421Z,62.16
2023-02-09T21:10:35.785Z,63.11
2023-02-09T21:13:04.821Z,62.35
2023-02-09T21:15:31.715Z,62.71
2023-02-09T21:17:58.457Z,62.07
2023-02-09T21:20:25.320Z,62.32
2023-02-09T21:22:52.089Z,62.14
2023-02-09T21:25:19.453Z,63.22
2023-02-09T21:27:46.336Z,62.76
2023-02-09T21:30:13.412Z,63.45
2023-02-09T21:32:40.110Z,63.89
2023-02-09T21:35:10.396Z,64.77
2023-02-09T21:37:38.934Z,64.11
2023-02-09T21:40:06.854Z,64.59
2023-02-09T21:42:35.599Z,64.44
2023-02-09T21:45:02.651Z,65.10
2023-02-09T21:47:34.359Z,64.32
2023-02-09T21:50:01.054Z,64.67
2023-02-09T21:52:29.930Z,65.29
2023-02-09T21:54:56.687Z,64.68
2023-02-09T21:57:23.843Z,64.55
2023-02-09T21:59:50.653Z,64.71
2023-02-09T22:02:18.142Z,64.84
2023-02-09T22:04:45.662Z,64.89
2023-02-09T22:07:13.742Z,65.29
2023-02-09T22:09:40.750Z,64.79
2023-02-09T22:12:07.783Z,65.33
2023-02-09T22:14:34.635Z,64.82
2023-02-09T22:17:01.492Z,64.81
2023-02-09T22:19:28.198Z,64.72
2023-02-09T22:21:57.750Z,64.37
2023-02-09T22:24:24.954Z,65.22
2023-02-09T22:26:51.700Z,64.29
2023-02-09T22:29:18.488Z,64.50
2023-02-09T22:31:45.373Z,64.52
2023-02-09T22:34:12.662Z,64.21
2023-02-09T22:36:39.901Z,63.59
2023-02-09T22:39:07.170Z,64.25
2023-02-09T22:41:34.193Z,63.83
2023-02-09T22:44:09.720Z,63.78
2023-02-09T22:46:39.231Z,64.07
2023-02-09T22:49:12.446Z,64.60
2023-02-09T22:51:39.485Z,63.54
2023-02-09T22:54:06.450Z,64.01
2023-02-09T22:56:33.360Z,63.65
2023-02-09T22:59:02.690Z,64.61
2023-02-09T23:01:30.016Z,64.32
2023-02-09T23:03:57.199Z,64.97
2023-02-09T23:06:27.314Z,64.53
2023-02-09T23:08:56.486Z,65.74
2023-02-09T23:11:23.344Z,65.02
2023-02-09T23:14:00.458Z,64.80
2023-02-09T23:16:34.008Z,64.96
2023-02-09T23:19:03.325Z,63.95
2023-02-09T23:21:32.895Z,63.92
2023-02-09T23:23:59.685Z,63.64
2023-02-09T23:26:26.430Z,63.80
2023-02-09T23:28:57.030Z,63.93
2023-02-09T23:31:24.445Z,64.32
2023-02-09T23:33:51.577Z,65.75
2023-02-09T23:36:20.950Z,65.59
2023-02-09T23:38:48.066Z,66.03
2023-02-09T23:41:17.115Z,65.55
2023-02-09T23:43:43.994Z,65.25
2023-02-09T23:46:13.208Z,65.09
2023-02-09T23:48:40.240Z,66.42
2023-02-09T23:51:12.393Z,66.31
2023-02-09T23:53:39.409Z,67.17
2023-02-09T23:56:06.787Z,67.68
2023-02-09T23:58:38.872Z,67.07
